sensor_id;sensor_type;location;lat;lon;timestamp;temperature;humidity
18950;DHT22;9608;49.288;8.130;2023-11-18T00:02:11;8.80;99.90
18950;DHT22;9608;49.288;8.130;2023-11-18T00:04:39;8.90;99.90
18950;DHT22;9608;49.288;8.130;2023-11-18T00:07:05;8.90;99.90
18950;DHT22;9608;49.288;8.130;2023-11-18T00:09:32;8.90;99.90
18950;DHT22;9608;49.288;8.130;2023-11-18T00:11:59;8.90;99.90
18950;DHT22;9608;49.288;8.130;2023-11-18T00:14:27;8.80;99.90
18950;DHT22;9608;49.288;8.130;2023-11-18T00:16:53;8.80;99.90
18950;DHT22;9608;49.288;8.130;2023-11-18T00:19:20;8.80;99.90
18950;DHT22;9608;49.288;8.130;2023-11-18T00:21:47;8.80;99.90
18950;DHT22;9608;49.288;8.130;2023-11-18T00:24:13;8.80;99.90
18950;DHT22;9608;49.288;8.130;2023-11-18T00:26:40;8.70;99.90
18950;DHT22;9608;49.288;8.130;2023-11-18T00:29:07;8.80;99.90
18950;DHT22;9608;49.288;8.130;2023-11-18T00:31:35;8.80;99.90
18950;DHT22;9608;49.288;8.130;2023-11-18T00:34:02;8.90;99.90
18950;DHT22;9608;49.288;8.130;2023-11-18T00:36:28;8.90;99.90
18950;DHT22;9608;49.288;8.130;2023-11-18T00:38:55;9.00;99.90
18950;DHT22;9608;49.288;8.130;2023-11-18T00:41:22;9.00;99.90
18950;DHT22;9608;49.288;8.130;2023-11-18T00:43:49;9.00;99.90
18950;DHT22;9608;49.288;8.130;2023-11-18T00:46:15;8.90;99.90
18950;DHT22;9608;49.288;8.130;2023-11-18T00:48:44;8.90;99.90
18950;DHT22;9608;49.288;8.130;2023-11-18T00:51:11;8.90;99.90
18950;DHT22;9608;49.288;8.130;2023-11-18T00:53:37;8.90;99.90
18950;DHT22;9608;49.288;8.130;2023-11-18T00:56:05;8.90;99.90
18950;DHT22;9608;49.288;8.130;2023-11-18T00:58:35;9.00;99.90
18950;DHT22;9608;49.288;8.130;2023-11-18T01:01:05;9.00;99.90
18950;DHT22;9608;49.288;8.130;2023-11-18T01:03:32;9.00;99.90
18950;DHT22;9608;49.288;8.130;2023-11-18T01:06:01;9.00;99.90
18950;DHT22;9608;49.288;8.130;2023-11-18T01:08:28;9.00;99.90
18950;DHT22;9608;49.288;8.130;2023-11-18T01:10:55;9.00;99.90
18950;DHT22;9608;49.288;8.130;2023-11-18T01:13:21;9.00;99.90
18950;DHT22;9608;49.288;8.130;2023-11-18T01:15:48;9.00;99.90
18950;DHT22;9608;49.288;8.130;2023-11-18T01:18:15;9.00;99.90
18950;DHT22;9608;49.288;8.130;2023-11-18T01:20:43;9.00;99.90
18950;DHT22;9608;49.288;8.130;2023-11-18T01:23:11;9.00;99.90
18950;DHT22;9608;49.288;8.130;2023-11-18T01:25:37;9.00;99.90
18950;DHT22;9608;49.288;8.130;2023-11-18T01:28:05;9.00;99.90
18950;DHT22;9608;49.288;8.130;2023-11-18T01:30:32;8.90;99.90
18950;DHT22;9608;49.288;8.130;2023-11-18T01:32:59;8.90;99.90
18950;DHT22;9608;49.288;8.130;2023-11-18T01:35:26;8.90;99.90
18950;DHT22;9608;49.288;8.130;2023-11-18T01:37:53;8.90;99.90
18950;DHT22;9608;49.288;8.130;2023-11-18T01:40:21;8.80;99.90
18950;DHT22;9608;49.288;8.130;2023-11-18T01:42:48;8.70;99.90
18950;DHT22;9608;49.288;8.130;2023-11-18T01:45:15;8.60;99.90
18950;DHT22;9608;49.288;8.130;2023-11-18T01:47:43;8.60;99.90
18950;DHT22;9608;49.288;8.130;2023-11-18T01:50:12;8.50;99.90
18950;DHT22;9608;49.288;8.130;2023-11-18T01:52:40;8.50;99.90
18950;DHT22;9608;49.288;8.130;2023-11-18T01:55:08;8.40;99.90
18950;DHT22;9608;49.288;8.130;2023-11-18T01:57:37;8.40;99.90
18950;DHT22;9608;49.288;8.130;2023-11-18T02:00:06;8.40;99.90
18950;DHT22;9608;49.288;8.130;2023-11-18T02:02:36;8.30;99.90
18950;DHT22;9608;49.288;8.130;2023-11-18T02:05:05;8.30;99.90
18950;DHT22;9608;49.288;8.130;2023-11-18T02:07:33;8.20;99.90
18950;DHT22;9608;49.288;8.130;2023-11-18T02:10:01;8.20;99.90
18950;DHT22;9608;49.288;8.130;2023-11-18T02:12:33;8.30;99.90
18950;DHT22;9608;49.288;8.130;2023-11-18T02:15:08;8.30;99.90
18950;DHT22;9608;49.288;8.130;2023-11-18T02:17:38;8.30;99.90
18950;DHT22;9608;49.288;8.130;2023-11-18T02:20:06;8.30;99.90
18950;DHT22;9608;49.288;8.130;2023-11-18T02:22:40;8.30;99.90
18950;DHT22;9608;49.288;8.130;2023-11-18T02:25:09;8.20;99.90
18950;DHT22;9608;49.288;8.130;2023-11-18T02:27:38;8.20;99.90
18950;DHT22;9608;49.288;8.130;2023-11-18T02:30:06;8.10;99.90
18950;DHT22;9608;49.288;8.130;2023-11-18T02:32:41;8.00;99.90
18950;DHT22;9608;49.288;8.130;2023-11-18T02:35:17;8.00;99.90
18950;DHT22;9608;49.288;8.130;2023-11-18T02:37:47;8.00;99.90
18950;DHT22;9608;49.288;8.130;2023-11-18T02:40:19;7.90;99.90
18950;DHT22;9608;49.288;8.130;2023-11-18T02:42:49;7.80;99.90
18950;DHT22;9608;49.288;8.130;2023-11-18T02:45:18;7.80;99.90
18950;DHT22;9608;49.288;8.130;2023-11-18T02:47:46;7.70;99.90
18950;DHT22;9608;49.288;8.130;2023-11-18T02:50:14;7.70;99.90
18950;DHT22;9608;49.288;8.130;2023-11-18T02:52:41;7.60;99.90
18950;DHT22;9608;49.288;8.130;2023-11-18T02:55:08;7.60;99.90
18950;DHT22;9608;49.288;8.130;2023-11-18T02:57:36;7.50;99.90
18950;DHT22;9608;49.288;8.130;2023-11-18T03:00:06;7.50;99.90
18950;DHT22;9608;49.288;8.130;2023-11-18T03:02:37;7.40;99.90
18950;DHT22;9608;49.288;8.130;2023-11-18T03:05:05;7.50;99.90
18950;DHT22;9608;49.288;8.130;2023-11-18T03:07:32;7.50;99.90
18950;DHT22;9608;49.288;8.130;2023-11-18T03:09:59;7.50;99.90
18950;DHT22;9608;49.288;8.130;2023-11-18T03:12:26;7.50;99.90
18950;DHT22;9608;49.288;8.130;2023-11-18T03:14:53;7.50;99.90
18950;DHT22;9608;49.288;8.130;2023-11-18T03:17:21;7.50;99.90
18950;DHT22;9608;49.288;8.130;2023-11-18T03:19:48;7.50;99.90
18950;DHT22;9608;49.288;8.130;2023-11-18T03:22:15;7.40;99.90
18950;DHT22;9608;49.288;8.130;2023-11-18T03:24:42;7.30;99.90
18950;DHT22;9608;49.288;8.130;2023-11-18T03:27:09;7.30;99.90
18950;DHT22;9608;49.288;8.130;2023-11-18T03:29:35;7.30;99.90
18950;DHT22;9608;49.288;8.130;2023-11-18T03:32:03;7.30;99.90
18950;DHT22;9608;49.288;8.130;2023-11-18T03:34:31;7.20;99.90
18950;DHT22;9608;49.288;8.130;2023-11-18T03:36:58;7.30;99.90
18950;DHT22;9608;49.288;8.130;2023-11-18T03:39:25;7.30;99.90
18950;DHT22;9608;49.288;8.130;2023-11-18T03:41:52;7.30;99.90
18950;DHT22;9608;49.288;8.130;2023-11-18T03:44:19;7.30;99.90
18950;DHT22;9608;49.288;8.130;2023-11-18T03:46:46;7.30;99.90
18950;DHT22;9608;49.288;8.130;2023-11-18T03:49:12;7.30;99.90
18950;DHT22;9608;49.288;8.130;2023-11-18T03:51:40;7.30;99.90
18950;DHT22;9608;49.288;8.130;2023-11-18T03:54:07;7.20;99.90
18950;DHT22;9608;49.288;8.130;2023-11-18T03:56:35;7.20;99.90
18950;DHT22;9608;49.288;8.130;2023-11-18T03:59:01;7.20;99.90
18950;DHT22;9608;49.288;8.130;2023-11-18T04:01:29;7.20;99.90
18950;DHT22;9608;49.288;8.130;2023-11-18T04:03:56;7.20;99.90
18950;DHT22;9608;49.288;8.130;2023-11-18T04:06:23;7.20;99.90
18950;DHT22;9608;49.288;8.130;2023-11-18T04:08:51;7.10;99.90
18950;DHT22;9608;49.288;8.130;2023-11-18T04:11:18;7.10;99.90
18950;DHT22;9608;49.288;8.130;2023-11-18T04:13:45;7.10;99.90
18950;DHT22;9608;49.288;8.130;2023-11-18T04:16:12;7.10;99.90
18950;DHT22;9608;49.288;8.130;2023-11-18T04:18:39;7.00;99.90
18950;DHT22;9608;49.288;8.130;2023-11-18T04:21:06;6.90;99.90
18950;DHT22;9608;49.288;8.130;2023-11-18T04:23:34;6.90;99.90
18950;DHT22;9608;49.288;8.130;2023-11-18T04:26:02;6.90;99.90
18950;DHT22;9608;49.288;8.130;2023-11-18T04:28:29;6.80;99.90
18950;DHT22;9608;49.288;8.130;2023-11-18T04:30:56;6.70;99.90
18950;DHT22;9608;49.288;8.130;2023-11-18T04:33:23;6.70;99.90
18950;DHT22;9608;49.288;8.130;2023-11-18T04:35:50;6.70;99.90
18950;DHT22;9608;49.288;8.130;2023-11-18T04:38:16;6.60;99.90
18950;DHT22;9608;49.288;8.130;2023-11-18T04:40:44;6.60;99.90
18950;DHT22;9608;49.288;8.130;2023-11-18T04:43:12;6.50;99.90
18950;DHT22;9608;49.288;8.130;2023-11-18T04:45:39;6.50;99.90
18950;DHT22;9608;49.288;8.130;2023-11-18T04:48:06;6.40;99.90
18950;DHT22;9608;49.288;8.130;2023-11-18T04:50:33;6.40;99.90
18950;DHT22;9608;49.288;8.130;2023-11-18T04:52:59;6.30;99.90
18950;DHT22;9608;49.288;8.130;2023-11-18T04:55:28;6.30;99.90
18950;DHT22;9608;49.288;8.130;2023-11-18T04:57:55;6.30;99.90
18950;DHT22;9608;49.288;8.130;2023-11-18T05:00:23;6.40;99.90
18950;DHT22;9608;49.288;8.130;2023-11-18T05:02:50;6.50;99.90
18950;DHT22;9608;49.288;8.130;2023-11-18T05:05:17;6.50;99.90
18950;DHT22;9608;49.288;8.130;2023-11-18T05:07:44;6.50;99.90
18950;DHT22;9608;49.288;8.130;2023-11-18T05:10:10;6.60;99.90
18950;DHT22;9608;49.288;8.130;2023-11-18T05:12:38;6.50;99.90
18950;DHT22;9608;49.288;8.130;2023-11-18T05:15:06;6.50;99.90
18950;DHT22;9608;49.288;8.130;2023-11-18T05:17:35;6.50;99.90
18950;DHT22;9608;49.288;8.130;2023-11-18T05:20:02;6.60;99.90
18950;DHT22;9608;49.288;8.130;2023-11-18T05:22:29;6.60;99.90
18950;DHT22;9608;49.288;8.130;2023-11-18T05:24:56;6.60;99.90
18950;DHT22;9608;49.288;8.130;2023-11-18T05:27:23;6.70;99.90
18950;DHT22;9608;49.288;8.130;2023-11-18T05:29:50;6.70;99.90
18950;DHT22;9608;49.288;8.130;2023-11-18T05:32:20;6.80;99.90
18950;DHT22;9608;49.288;8.130;2023-11-18T05:34:50;6.90;99.90
18950;DHT22;9608;49.288;8.130;2023-11-18T05:37:19;6.90;99.90
18950;DHT22;9608;49.288;8.130;2023-11-18T05:39:45;6.90;99.90
18950;DHT22;9608;49.288;8.130;2023-11-18T05:42:14;6.90;99.90
18950;DHT22;9608;49.288;8.130;2023-11-18T05:44:41;6.90;99.90
18950;DHT22;9608;49.288;8.130;2023-11-18T05:47:08;6.90;99.90
18950;DHT22;9608;49.288;8.130;2023-11-18T05:49:37;7.00;99.90
18950;DHT22;9608;49.288;8.130;2023-11-18T05:52:05;7.00;99.90
18950;DHT22;9608;49.288;8.130;2023-11-18T05:54:33;6.90;99.90
18950;DHT22;9608;49.288;8.130;2023-11-18T05:56:59;6.90;99.90
18950;DHT22;9608;49.288;8.130;2023-11-18T05:59:26;6.80;99.90
18950;DHT22;9608;49.288;8.130;2023-11-18T06:01:53;6.80;99.90
18950;DHT22;9608;49.288;8.130;2023-11-18T06:04:22;6.90;99.90
18950;DHT22;9608;49.288;8.130;2023-11-18T06:06:49;6.90;99.90
18950;DHT22;9608;49.288;8.130;2023-11-18T06:09:17;6.90;99.90
18950;DHT22;9608;49.288;8.130;2023-11-18T06:11:46;6.90;99.90
18950;DHT22;9608;49.288;8.130;2023-11-18T06:14:15;7.00;99.90
18950;DHT22;9608;49.288;8.130;2023-11-18T06:16:42;6.90;99.90
18950;DHT22;9608;49.288;8.130;2023-11-18T06:19:08;6.80;99.90
18950;DHT22;9608;49.288;8.130;2023-11-18T06:21:35;6.80;99.90
18950;DHT22;9608;49.288;8.130;2023-11-18T06:24:03;6.80;99.90
18950;DHT22;9608;49.288;8.130;2023-11-18T06:26:32;6.70;99.90
18950;DHT22;9608;49.288;8.130;2023-11-18T06:29:01;6.80;99.90
18950;DHT22;9608;49.288;8.130;2023-11-18T06:31:29;6.80;99.90
18950;DHT22;9608;49.288;8.130;2023-11-18T06:33:56;6.90;99.90
18950;DHT22;9608;49.288;8.130;2023-11-18T06:36:23;6.80;99.90
18950;DHT22;9608;49.288;8.130;2023-11-18T06:38:52;6.80;99.90
18950;DHT22;9608;49.288;8.130;2023-11-18T06:41:20;6.90;99.90
18950;DHT22;9608;49.288;8.130;2023-11-18T06:43:50;6.70;99.90
18950;DHT22;9608;49.288;8.130;2023-11-18T06:46:27;6.20;99.90
18950;DHT22;9608;49.288;8.130;2023-11-18T06:48:57;6.00;99.90
18950;DHT22;9608;49.288;8.130;2023-11-18T06:51:25;5.70;99.90
18950;DHT22;9608;49.288;8.130;2023-11-18T06:53:52;5.70;99.90
18950;DHT22;9608;49.288;8.130;2023-11-18T06:56:20;5.70;99.90
18950;DHT22;9608;49.288;8.130;2023-11-18T06:58:47;5.60;99.90
18950;DHT22;9608;49.288;8.130;2023-11-18T07:01:16;5.80;99.90
18950;DHT22;9608;49.288;8.130;2023-11-18T07:03:44;5.80;99.90
18950;DHT22;9608;49.288;8.130;2023-11-18T07:06:12;5.70;99.90
18950;DHT22;9608;49.288;8.130;2023-11-18T07:08:39;5.70;99.90
18950;DHT22;9608;49.288;8.130;2023-11-18T07:11:06;5.80;99.90
18950;DHT22;9608;49.288;8.130;2023-11-18T07:13:33;5.80;99.90
18950;DHT22;9608;49.288;8.130;2023-11-18T07:16:00;6.00;99.90
18950;DHT22;9608;49.288;8.130;2023-11-18T07:18:30;6.10;99.90
18950;DHT22;9608;49.288;8.130;2023-11-18T07:20:58;6.10;99.90
18950;DHT22;9608;49.288;8.130;2023-11-18T07:23:25;6.20;99.90
18950;DHT22;9608;49.288;8.130;2023-11-18T07:25:51;6.20;99.90
18950;DHT22;9608;49.288;8.130;2023-11-18T07:28:19;6.10;99.90
18950;DHT22;9608;49.288;8.130;2023-11-18T07:30:45;6.00;99.90
18950;DHT22;9608;49.288;8.130;2023-11-18T07:33:13;5.80;99.90
18950;DHT22;9608;49.288;8.130;2023-11-18T07:35:42;5.80;99.90
18950;DHT22;9608;49.288;8.130;2023-11-18T07:38:09;5.80;99.90
18950;DHT22;9608;49.288;8.130;2023-11-18T07:40:36;5.90;99.90
18950;DHT22;9608;49.288;8.130;2023-11-18T07:43:07;5.80;99.90
18950;DHT22;9608;49.288;8.130;2023-11-18T07:45:35;5.80;99.90
18950;DHT22;9608;49.288;8.130;2023-11-18T07:48:04;5.90;99.90
18950;DHT22;9608;49.288;8.130;2023-11-18T07:50:32;6.10;99.90
18950;DHT22;9608;49.288;8.130;2023-11-18T07:53:01;6.20;99.90
18950;DHT22;9608;49.288;8.130;2023-11-18T07:55:28;6.40;99.90
18950;DHT22;9608;49.288;8.130;2023-11-18T07:57:55;6.50;99.90
18950;DHT22;9608;49.288;8.130;2023-11-18T08:00:22;6.60;99.90
18950;DHT22;9608;49.288;8.130;2023-11-18T08:02:49;6.60;99.90
18950;DHT22;9608;49.288;8.130;2023-11-18T08:05:17;6.60;99.90
18950;DHT22;9608;49.288;8.130;2023-11-18T08:07:44;6.60;99.90
18950;DHT22;9608;49.288;8.130;2023-11-18T08:10:12;6.50;99.90
18950;DHT22;9608;49.288;8.130;2023-11-18T08:12:44;6.50;99.90
18950;DHT22;9608;49.288;8.130;2023-11-18T08:15:12;6.60;99.90
18950;DHT22;9608;49.288;8.130;2023-11-18T08:17:39;6.60;99.90
18950;DHT22;9608;49.288;8.130;2023-11-18T08:20:07;6.60;99.90
18950;DHT22;9608;49.288;8.130;2023-11-18T08:22:39;6.70;99.90
18950;DHT22;9608;49.288;8.130;2023-11-18T08:25:06;6.90;99.90
18950;DHT22;9608;49.288;8.130;2023-11-18T08:27:35;7.10;99.90
18950;DHT22;9608;49.288;8.130;2023-11-18T08:30:02;7.20;99.90
18950;DHT22;9608;49.288;8.130;2023-11-18T08:32:31;7.30;99.90
18950;DHT22;9608;49.288;8.130;2023-11-18T08:34:58;7.40;99.90
18950;DHT22;9608;49.288;8.130;2023-11-18T08:37:25;7.40;99.90
18950;DHT22;9608;49.288;8.130;2023-11-18T08:39:53;7.50;99.90
18950;DHT22;9608;49.288;8.130;2023-11-18T08:42:20;7.60;99.90
18950;DHT22;9608;49.288;8.130;2023-11-18T08:44:48;7.70;99.90
18950;DHT22;9608;49.288;8.130;2023-11-18T08:47:15;7.60;99.90
18950;DHT22;9608;49.288;8.130;2023-11-18T08:49:43;7.30;99.90
18950;DHT22;9608;49.288;8.130;2023-11-18T08:52:11;7.30;99.90
18950;DHT22;9608;49.288;8.130;2023-11-18T08:54:38;7.30;99.90
18950;DHT22;9608;49.288;8.130;2023-11-18T08:57:25;7.50;99.90
18950;DHT22;9608;49.288;8.130;2023-11-18T08:59:53;7.80;99.90
18950;DHT22;9608;49.288;8.130;2023-11-18T09:02:24;7.80;99.90
18950;DHT22;9608;49.288;8.130;2023-11-18T09:04:50;7.80;99.90
18950;DHT22;9608;49.288;8.130;2023-11-18T09:07:20;7.80;99.90
18950;DHT22;9608;49.288;8.130;2023-11-18T09:09:47;7.80;99.90
18950;DHT22;9608;49.288;8.130;2023-11-18T09:12:15;7.90;99.90
18950;DHT22;9608;49.288;8.130;2023-11-18T09:14:43;8.00;99.90
18950;DHT22;9608;49.288;8.130;2023-11-18T09:17:14;8.10;99.90
18950;DHT22;9608;49.288;8.130;2023-11-18T09:19:41;8.10;99.90
18950;DHT22;9608;49.288;8.130;2023-11-18T09:22:07;8.10;99.90
18950;DHT22;9608;49.288;8.130;2023-11-18T09:24:38;8.10;99.90
18950;DHT22;9608;49.288;8.130;2023-11-18T09:27:05;8.10;99.90
18950;DHT22;9608;49.288;8.130;2023-11-18T09:29:32;8.30;99.90
18950;DHT22;9608;49.288;8.130;2023-11-18T09:31:59;8.30;99.90
18950;DHT22;9608;49.288;8.130;2023-11-18T09:34:32;8.40;99.90
18950;DHT22;9608;49.288;8.130;2023-11-18T09:36:59;8.50;99.90
18950;DHT22;9608;49.288;8.130;2023-11-18T09:39:26;8.50;99.90
18950;DHT22;9608;49.288;8.130;2023-11-18T09:42:05;8.50;99.90
18950;DHT22;9608;49.288;8.130;2023-11-18T09:44:35;8.60;99.90
18950;DHT22;9608;49.288;8.130;2023-11-18T09:47:07;8.60;99.90
18950;DHT22;9608;49.288;8.130;2023-11-18T09:49:40;8.50;99.90
18950;DHT22;9608;49.288;8.130;2023-11-18T09:52:15;8.40;99.90
18950;DHT22;9608;49.288;8.130;2023-11-18T09:54:49;8.40;99.90
18950;DHT22;9608;49.288;8.130;2023-11-18T09:57:26;8.30;99.90
18950;DHT22;9608;49.288;8.130;2023-11-18T10:00:01;8.50;99.90
18950;DHT22;9608;49.288;8.130;2023-11-18T10:02:38;8.60;99.90
18950;DHT22;9608;49.288;8.130;2023-11-18T10:05:09;8.90;99.90
18950;DHT22;9608;49.288;8.130;2023-11-18T10:07:38;9.00;99.90
18950;DHT22;9608;49.288;8.130;2023-11-18T10:10:07;9.10;99.90
18950;DHT22;9608;49.288;8.130;2023-11-18T10:12:40;9.20;99.90
18950;DHT22;9608;49.288;8.130;2023-11-18T10:15:11;9.30;99.90
18950;DHT22;9608;49.288;8.130;2023-11-18T10:17:38;9.20;99.90
18950;DHT22;9608;49.288;8.130;2023-11-18T10:20:21;9.20;99.90
18950;DHT22;9608;49.288;8.130;2023-11-18T10:23:05;9.20;99.90
18950;DHT22;9608;49.288;8.130;2023-11-18T10:25:35;9.10;99.90
18950;DHT22;9608;49.288;8.130;2023-11-18T10:28:06;9.00;99.90
18950;DHT22;9608;49.288;8.130;2023-11-18T10:30:42;9.10;99.90
18950;DHT22;9608;49.288;8.130;2023-11-18T10:33:11;9.10;99.90
18950;DHT22;9608;49.288;8.130;2023-11-18T10:35:39;8.90;99.90
18950;DHT22;9608;49.288;8.130;2023-11-18T10:38:16;8.80;99.90
18950;DHT22;9608;49.288;8.130;2023-11-18T10:40:43;8.70;99.90
18950;DHT22;9608;49.288;8.130;2023-11-18T10:43:10;8.60;99.90
18950;DHT22;9608;49.288;8.130;2023-11-18T10:45:37;8.50;99.90
18950;DHT22;9608;49.288;8.130;2023-11-18T10:48:06;8.50;99.90
18950;DHT22;9608;49.288;8.130;2023-11-18T10:50:33;8.60;99.90
18950;DHT22;9608;49.288;8.130;2023-11-18T10:53:01;8.60;99.90
18950;DHT22;9608;49.288;8.130;2023-11-18T10:55:36;8.70;99.90
18950;DHT22;9608;49.288;8.130;2023-11-18T10:58:03;8.70;99.90
18950;DHT22;9608;49.288;8.130;2023-11-18T11:00:45;8.70;99.90
18950;DHT22;9608;49.288;8.130;2023-11-18T11:03:13;8.80;99.90
18950;DHT22;9608;49.288;8.130;2023-11-18T11:05:40;8.80;99.90
18950;DHT22;9608;49.288;8.130;2023-11-18T11:08:09;8.80;99.90
18950;DHT22;9608;49.288;8.130;2023-11-18T11:10:39;9.00;99.90
18950;DHT22;9608;49.288;8.130;2023-11-18T11:13:08;9.00;99.90
18950;DHT22;9608;49.288;8.130;2023-11-18T11:15:43;8.80;99.90
18950;DHT22;9608;49.288;8.130;2023-11-18T11:18:12;8.90;99.90
18950;DHT22;9608;49.288;8.130;2023-11-18T11:20:57;9.10;99.90
18950;DHT22;9608;49.288;8.130;2023-11-18T11:23:37;9.20;99.90
18950;DHT22;9608;49.288;8.130;2023-11-18T11:26:18;9.30;99.90
18950;DHT22;9608;49.288;8.130;2023-11-18T11:28:52;9.30;99.90
18950;DHT22;9608;49.288;8.130;2023-11-18T11:31:29;9.50;99.90
18950;DHT22;9608;49.288;8.130;2023-11-18T11:33:59;9.60;99.90
18950;DHT22;9608;49.288;8.130;2023-11-18T11:36:36;9.60;99.90
18950;DHT22;9608;49.288;8.130;2023-11-18T11:39:06;9.50;99.90
18950;DHT22;9608;49.288;8.130;2023-11-18T11:41:42;9.50;99.90
18950;DHT22;9608;49.288;8.130;2023-11-18T11:44:11;9.40;99.90
18950;DHT22;9608;49.288;8.130;2023-11-18T11:46:40;9.20;99.90
18950;DHT22;9608;49.288;8.130;2023-11-18T11:49:09;9.10;99.90
18950;DHT22;9608;49.288;8.130;2023-11-18T11:51:46;9.10;99.90
18950;DHT22;9608;49.288;8.130;2023-11-18T11:54:21;8.60;99.90
18950;DHT22;9608;49.288;8.130;2023-11-18T11:56:50;8.40;99.90
18950;DHT22;9608;49.288;8.130;2023-11-18T11:59:35;8.40;99.90
18950;DHT22;9608;49.288;8.130;2023-11-18T12:02:03;8.30;99.90
18950;DHT22;9608;49.288;8.130;2023-11-18T12:04:35;8.30;99.90
18950;DHT22;9608;49.288;8.130;2023-11-18T12:07:05;8.30;99.90
18950;DHT22;9608;49.288;8.130;2023-11-18T12:09:35;8.30;99.90
18950;DHT22;9608;49.288;8.130;2023-11-18T12:12:04;8.20;99.90
18950;DHT22;9608;49.288;8.130;2023-11-18T12:14:49;8.10;99.90
18950;DHT22;9608;49.288;8.130;2023-11-18T12:17:16;8.10;99.90
18950;DHT22;9608;49.288;8.130;2023-11-18T12:19:48;8.10;99.90
18950;DHT22;9608;49.288;8.130;2023-11-18T12:22:16;8.10;99.90
18950;DHT22;9608;49.288;8.130;2023-11-18T12:28:07;8.30;99.90
18950;DHT22;9608;49.288;8.130;2023-11-18T12:30:41;8.30;99.90
18950;DHT22;9608;49.288;8.130;2023-11-18T12:33:17;8.20;99.90
18950;DHT22;9608;49.288;8.130;2023-11-18T12:42:09;8.20;99.90
18950;DHT22;9608;49.288;8.130;2023-11-18T12:45:00;8.30;99.90
18950;DHT22;9608;49.288;8.130;2023-11-18T12:47:42;8.40;99.90
18950;DHT22;9608;49.288;8.130;2023-11-18T12:50:11;8.50;99.90
18950;DHT22;9608;49.288;8.130;2023-11-18T12:52:44;8.50;99.90
18950;DHT22;9608;49.288;8.130;2023-11-18T12:55:12;8.50;99.90
18950;DHT22;9608;49.288;8.130;2023-11-18T12:57:46;8.50;99.90
18950;DHT22;9608;49.288;8.130;2023-11-18T13:00:16;8.40;99.90
18950;DHT22;9608;49.288;8.130;2023-11-18T13:02:52;8.40;99.90
18950;DHT22;9608;49.288;8.130;2023-11-18T13:05:19;8.50;99.90
18950;DHT22;9608;49.288;8.130;2023-11-18T13:07:46;8.50;99.90
18950;DHT22;9608;49.288;8.130;2023-11-18T13:10:14;8.60;99.90
18950;DHT22;9608;49.288;8.130;2023-11-18T13:12:41;8.70;99.90
18950;DHT22;9608;49.288;8.130;2023-11-18T13:15:10;8.70;99.90
18950;DHT22;9608;49.288;8.130;2023-11-18T13:17:38;8.70;99.90
18950;DHT22;9608;49.288;8.130;2023-11-18T13:20:13;8.60;99.90
18950;DHT22;9608;49.288;8.130;2023-11-18T13:22:41;8.60;99.90
18950;DHT22;9608;49.288;8.130;2023-11-18T13:25:08;8.60;99.90
18950;DHT22;9608;49.288;8.130;2023-11-18T13:27:35;8.60;99.90
18950;DHT22;9608;49.288;8.130;2023-11-18T13:30:05;8.40;99.90
18950;DHT22;9608;49.288;8.130;2023-11-18T13:32:41;8.50;99.90
18950;DHT22;9608;49.288;8.130;2023-11-18T13:35:08;8.60;99.90
18950;DHT22;9608;49.288;8.130;2023-11-18T13:37:35;8.80;99.90
18950;DHT22;9608;49.288;8.130;2023-11-18T13:40:02;8.70;99.90
18950;DHT22;9608;49.288;8.130;2023-11-18T13:42:31;8.90;99.90
18950;DHT22;9608;49.288;8.130;2023-11-18T13:44:59;9.00;99.90
18950;DHT22;9608;49.288;8.130;2023-11-18T13:47:26;8.90;99.90
18950;DHT22;9608;49.288;8.130;2023-11-18T13:49:55;8.90;99.90
18950;DHT22;9608;49.288;8.130;2023-11-18T13:52:24;8.80;99.90
18950;DHT22;9608;49.288;8.130;2023-11-18T13:54:51;8.80;99.90
18950;DHT22;9608;49.288;8.130;2023-11-18T13:57:21;8.60;99.90
18950;DHT22;9608;49.288;8.130;2023-11-18T13:59:49;8.60;99.90
18950;DHT22;9608;49.288;8.130;2023-11-18T14:02:16;8.60;99.90
18950;DHT22;9608;49.288;8.130;2023-11-18T14:04:43;8.60;99.90
18950;DHT22;9608;49.288;8.130;2023-11-18T14:07:15;8.40;99.90
18950;DHT22;9608;49.288;8.130;2023-11-18T14:09:42;8.40;99.90
18950;DHT22;9608;49.288;8.130;2023-11-18T14:12:11;8.40;99.90
18950;DHT22;9608;49.288;8.130;2023-11-18T14:14:38;8.30;99.90
18950;DHT22;9608;49.288;8.130;2023-11-18T14:17:05;8.30;99.90
18950;DHT22;9608;49.288;8.130;2023-11-18T14:19:35;8.30;99.90
18950;DHT22;9608;49.288;8.130;2023-11-18T14:22:03;8.30;99.90
18950;DHT22;9608;49.288;8.130;2023-11-18T14:24:33;8.40;99.90
18950;DHT22;9608;49.288;8.130;2023-11-18T14:27:00;8.60;99.90
18950;DHT22;9608;49.288;8.130;2023-11-18T14:29:26;8.60;99.90
18950;DHT22;9608;49.288;8.130;2023-11-18T14:31:54;8.60;99.90
18950;DHT22;9608;49.288;8.130;2023-11-18T14:34:20;8.60;99.90
18950;DHT22;9608;49.288;8.130;2023-11-18T14:36:47;8.50;99.90
18950;DHT22;9608;49.288;8.130;2023-11-18T14:39:14;8.40;99.90
18950;DHT22;9608;49.288;8.130;2023-11-18T14:41:45;8.30;99.90
18950;DHT22;9608;49.288;8.130;2023-11-18T14:44:12;8.40;99.90
18950;DHT22;9608;49.288;8.130;2023-11-18T14:46:38;8.40;99.90
18950;DHT22;9608;49.288;8.130;2023-11-18T14:49:06;8.40;99.90
18950;DHT22;9608;49.288;8.130;2023-11-18T14:51:33;8.40;99.90
18950;DHT22;9608;49.288;8.130;2023-11-18T14:54:01;8.50;99.90
18950;DHT22;9608;49.288;8.130;2023-11-18T14:56:28;8.50;99.90
18950;DHT22;9608;49.288;8.130;2023-11-18T14:58:56;8.70;99.90
18950;DHT22;9608;49.288;8.130;2023-11-18T15:01:23;8.60;99.90
18950;DHT22;9608;49.288;8.130;2023-11-18T15:03:50;8.70;99.90
18950;DHT22;9608;49.288;8.130;2023-11-18T15:06:24;8.70;99.90
18950;DHT22;9608;49.288;8.130;2023-11-18T15:08:51;8.70;99.90
18950;DHT22;9608;49.288;8.130;2023-11-18T15:11:21;8.60;99.90
18950;DHT22;9608;49.288;8.130;2023-11-18T15:13:48;8.50;99.90
18950;DHT22;9608;49.288;8.130;2023-11-18T15:16:16;8.40;99.90
18950;DHT22;9608;49.288;8.130;2023-11-18T15:18:44;8.30;99.90
18950;DHT22;9608;49.288;8.130;2023-11-18T15:21:12;8.30;99.90
18950;DHT22;9608;49.288;8.130;2023-11-18T15:23:40;8.20;99.90
18950;DHT22;9608;49.288;8.130;2023-11-18T15:26:07;8.10;99.90
18950;DHT22;9608;49.288;8.130;2023-11-18T15:28:34;8.10;99.90
18950;DHT22;9608;49.288;8.130;2023-11-18T15:31:01;8.10;99.90
18950;DHT22;9608;49.288;8.130;2023-11-18T15:33:30;8.10;99.90
18950;DHT22;9608;49.288;8.130;2023-11-18T15:35:57;8.00;99.90
18950;DHT22;9608;49.288;8.130;2023-11-18T15:38:25;8.00;99.90
18950;DHT22;9608;49.288;8.130;2023-11-18T15:40:52;8.00;99.90
18950;DHT22;9608;49.288;8.130;2023-11-18T15:43:19;7.90;99.90
18950;DHT22;9608;49.288;8.130;2023-11-18T15:45:47;8.00;99.90
18950;DHT22;9608;49.288;8.130;2023-11-18T15:48:13;8.00;99.90
18950;DHT22;9608;49.288;8.130;2023-11-18T15:50:42;8.40;99.90
18950;DHT22;9608;49.288;8.130;2023-11-18T15:53:08;8.60;99.90
18950;DHT22;9608;49.288;8.130;2023-11-18T15:55:38;8.70;99.90
18950;DHT22;9608;49.288;8.130;2023-11-18T15:58:06;8.80;99.90
18950;DHT22;9608;49.288;8.130;2023-11-18T16:00:35;8.70;99.90
18950;DHT22;9608;49.288;8.130;2023-11-18T16:03:02;8.70;99.90
18950;DHT22;9608;49.288;8.130;2023-11-18T16:05:30;8.70;99.90
18950;DHT22;9608;49.288;8.130;2023-11-18T16:08:00;8.80;99.90
18950;DHT22;9608;49.288;8.130;2023-11-18T16:10:27;8.90;99.90
18950;DHT22;9608;49.288;8.130;2023-11-18T16:12:56;8.90;99.90
18950;DHT22;9608;49.288;8.130;2023-11-18T16:15:25;8.90;99.90
18950;DHT22;9608;49.288;8.130;2023-11-18T16:17:53;8.90;99.90
18950;DHT22;9608;49.288;8.130;2023-11-18T16:20:21;8.90;99.90
18950;DHT22;9608;49.288;8.130;2023-11-18T16:22:49;8.90;99.90